createdAt,value
2019-04-23T00:05:27.241Z,2.38
2019-04-23T00:10:25.655Z,3.02
2019-04-23T00:15:26.850Z,3.74
2019-04-23T00:20:33.915Z,4.03
2019-04-23T00:26:01.687Z,4.39
2019-04-23T00:30:48.210Z,4.84
2019-04-23T00:35:50.114Z,4.14
2019-04-23T00:40:52.116Z,2.93
2019-04-23T00:45:55.051Z,4.36
2019-04-23T00:50:58.585Z,3.22
2019-04-23T00:56:32.102Z,2.55
2019-04-23T01:01:18.034Z,3.96
2019-04-23T01:06:24.199Z,3.34
2019-04-23T01:11:23.983Z,2.79
2019-04-23T01:16:32.847Z,2.90
2019-04-23T01:21:19.929Z,3.46
2019-04-23T01:26:50.294Z,3.59
2019-04-23T01:31:47.954Z,3.60
2019-04-23T01:37:00.866Z,2.87
2019-04-23T01:42:11.846Z,3.32
2019-04-23T01:47:03.591Z,3.91
2019-04-23T01:57:18.946Z,2.59
2019-04-23T02:02:39.334Z,3.77
2019-04-23T02:12:34.430Z,3.89
2019-04-23T02:17:53.733Z,4.96
2019-04-23T02:23:01.723Z,3.65
2019-04-23T02:33:20.166Z,2.37
2019-04-23T02:38:19.099Z,3.91
2019-04-23T02:43:16.252Z,2.77
2019-04-23T02:58:49.702Z,4.48
2019-04-23T03:08:46.551Z,3.92
2019-04-23T03:13:48.296Z,3.97
2019-04-23T03:18:47.763Z,4.29
2019-04-23T03:24:17.195Z,7.52
2019-04-23T03:29:08.312Z,4.29
2019-04-23T03:39:17.749Z,3.78
2019-04-23T03:44:35.556Z,4.01
2019-04-23T03:49:21.347Z,3.71
2019-04-23T03:59:44.851Z,2.70
2019-04-23T04:04:38.939Z,2.98
2019-04-23T04:30:12.420Z,2.83
2019-04-23T04:35:25.042Z,3.18
2019-04-23T04:45:43.062Z,4.16
2019-04-23T04:55:52.104Z,2.34
2019-04-23T05:06:01.344Z,2.42
2019-04-23T05:10:52.134Z,2.99
2019-04-23T05:16:06.393Z,4.93
2019-04-23T05:20:58.024Z,6.21
2019-04-23T05:26:19.251Z,3.80
2019-04-23T05:36:20.172Z,3.04
2019-04-23T05:41:29.522Z,2.88
2019-04-23T05:51:38.255Z,4.71
2019-04-23T06:07:08.743Z,9.08
2019-04-23T06:12:00.050Z,5.32
2019-04-23T06:17:11.914Z,4.31
2019-04-23T06:22:27.271Z,5.19
2019-04-23T06:27:19.314Z,4.20
2019-04-23T06:37:26.804Z,4.82
2019-04-23T06:42:27.876Z,4.42
2019-04-23T06:47:38.896Z,4.28
2019-04-23T06:52:40.590Z,4.38
2019-04-23T06:57:57.081Z,3.85
2019-04-23T07:02:59.677Z,5.61
2019-04-23T07:08:02.758Z,4.26
2019-04-23T07:13:03.098Z,5.53
2019-04-23T07:23:13.451Z,5.06
2019-04-23T07:28:32.522Z,3.74
2019-04-23T07:43:39.751Z,4.50
2019-04-23T07:48:48.715Z,4.62
2019-04-23T07:58:44.850Z,5.09
2019-04-23T08:04:01.818Z,4.73
2019-04-23T08:09:09.169Z,5.62
2019-04-23T08:14:08.627Z,7.12
2019-04-23T08:19:24.545Z,5.26
2019-04-23T08:24:33.653Z,6.00
2019-04-23T08:29:19.862Z,4.78
2019-04-23T08:39:43.293Z,5.09
2019-04-23T08:44:57.406Z,6.19
2019-04-23T08:49:50.544Z,5.10
2019-04-23T08:55:06.094Z,5.26
2019-04-23T09:00:02.919Z,6.12
2019-04-23T09:05:00.759Z,5.93
2019-04-23T09:15:16.782Z,6.44
2019-04-23T09:20:21.814Z,5.90
2019-04-23T09:41:08.771Z,6.33
2019-04-23T09:45:57.981Z,5.07
2019-04-23T09:50:54.043Z,6.25
2019-04-23T09:55:53.097Z,6.20
2019-04-23T10:01:19.945Z,7.25
2019-04-23T10:06:03.395Z,6.82
2019-04-23T10:10:57.551Z,5.67
2019-04-23T10:16:04.421Z,6.89
2019-04-23T10:21:08.792Z,6.35
2019-04-23T10:26:16.273Z,7.76
2019-04-23T10:31:20.904Z,5.31
2019-04-23T10:36:27.809Z,6.08
2019-04-23T10:41:32.467Z,5.16
2019-04-23T10:47:08.552Z,5.17
2019-04-23T10:57:04.031Z,6.80
2019-04-23T11:22:45.306Z,9.46
2019-04-23T11:27:52.181Z,9.05
2019-04-23T11:33:00.938Z,7.04
2019-04-23T11:38:24.863Z,8.50
2019-04-23T11:43:07.671Z,8.84
2019-04-23T11:48:36.721Z,6.06
2019-04-23T11:53:22.085Z,5.02
2019-04-23T12:03:26.498Z,7.50
2019-04-23T12:08:37.854Z,6.54
2019-04-23T12:13:44.753Z,6.49
2019-04-23T12:18:51.442Z,7.91
2019-04-23T12:23:58.657Z,6.82
2019-04-23T12:28:57.067Z,8.18
2019-04-23T12:33:55.346Z,5.34
2019-04-23T12:39:11.349Z,7.16
2019-04-23T12:44:12.919Z,8.30
2019-04-23T12:54:44.160Z,5.67
2019-04-23T12:59:28.662Z,6.38
2019-04-23T13:09:45.763Z,7.50
2019-04-23T13:14:49.546Z,6.99
2019-04-23T13:19:54.720Z,5.52
2019-04-23T13:25:02.327Z,10.61
2019-04-23T13:29:56.778Z,7.00
2019-04-23T13:35:08.522Z,6.02
2019-04-23T13:40:09.509Z,8.62
2019-04-23T13:45:51.146Z,6.68
2019-04-23T13:50:38.520Z,5.69
2019-04-23T13:55:27.917Z,6.71
2019-04-23T14:00:34.843Z,7.06
2019-04-23T14:05:45.585Z,9.04
2019-04-23T14:10:39.792Z,7.32
2019-04-23T14:26:18.820Z,8.62
2019-04-23T14:31:10.557Z,9.03
2019-04-23T14:41:23.446Z,6.06
2019-04-23T14:46:43.092Z,7.12
2019-04-23T14:51:38.733Z,8.04
2019-04-23T14:56:42.430Z,9.64
2019-04-23T15:01:46.458Z,7.94
2019-04-23T15:12:01.764Z,8.16
2019-04-23T15:17:00.027Z,8.72
2019-04-23T15:22:04.697Z,10.15
2019-04-23T15:32:21.661Z,11.15
2019-04-23T15:37:23.838Z,9.09
2019-04-23T15:42:26.143Z,6.78
2019-04-23T15:47:39.862Z,9.70
2019-04-23T15:52:44.520Z,6.26
2019-04-23T15:58:01.017Z,8.90
2019-04-23T16:02:23.745Z,7.05
2019-04-23T16:07:48.572Z,7.94
2019-04-23T16:23:06.934Z,6.99
2019-04-23T16:28:25.795Z,7.77
2019-04-23T16:33:08.768Z,8.54
2019-04-23T16:43:27.917Z,9.09
2019-04-23T16:48:47.819Z,8.49
2019-04-23T16:53:38.388Z,9.97
2019-04-23T17:03:56.440Z,9.23
2019-04-23T17:09:02.472Z,7.90
2019-04-23T17:14:13.178Z,7.65
2019-04-23T17:19:16.547Z,7.47
2019-04-23T17:29:28.716Z,8.56
2019-04-23T17:34:35.050Z,8.82
2019-04-23T17:39:31.187Z,8.17
2019-04-23T17:44:54.615Z,6.92
2019-04-23T17:49:59.614Z,6.43
2019-04-23T18:00:16.160Z,9.59
2019-04-23T18:10:22.912Z,9.74
2019-04-23T18:15:15.707Z,8.82
2019-04-23T18:20:22.973Z,9.49
2019-04-23T18:25:35.469Z,10.05
2019-04-23T18:30:34.584Z,8.78
2019-04-23T18:35:33.996Z,7.56
2019-04-23T18:41:01.260Z,11.16
2019-04-23T18:45:54.113Z,8.40
2019-04-23T18:51:00.294Z,9.69
2019-04-23T18:56:06.585Z,10.42
2019-04-23T19:01:14.054Z,7.23
2019-04-23T19:06:23.803Z,9.31
2019-04-23T19:11:28.424Z,7.77
2019-04-23T19:16:18.209Z,11.37
2019-04-23T19:21:49.046Z,13.42
2019-04-23T19:26:50.118Z,10.13
2019-04-23T19:31:50.653Z,10.40
2019-04-23T19:36:51.028Z,9.70
2019-04-23T19:41:59.344Z,11.08
2019-04-23T19:47:01.729Z,9.97
2019-04-23T19:51:53.423Z,8.74
2019-04-23T19:57:01.903Z,7.36
2019-04-23T20:07:26.656Z,10.46
2019-04-23T20:12:28.258Z,12.67
2019-04-23T20:17:39.653Z,9.59
2019-04-23T20:27:54.158Z,9.14
2019-04-23T20:33:37.085Z,11.54
2019-04-23T20:42:57.170Z,8.51
2019-04-23T20:48:04.814Z,8.30
2019-04-23T20:53:08.970Z,8.46
2019-04-23T20:58:16.166Z,9.24
2019-04-23T21:03:47.342Z,8.77
2019-04-23T21:14:01.964Z,12.81
2019-04-23T21:23:50.253Z,8.13
2019-04-23T21:39:04.302Z,6.67
2019-04-23T21:54:04.903Z,11.08
2019-04-23T21:59:17.567Z,8.13
2019-04-23T22:09:27.176Z,5.95
2019-04-23T22:19:56.958Z,7.19
2019-04-23T22:24:53.319Z,9.64
2019-04-23T22:35:07.333Z,7.91
2019-04-23T22:45:16.254Z,9.70
2019-04-23T23:00:33.545Z,6.03
2019-04-23T23:10:38.117Z,6.04
2019-04-23T23:15:54.553Z,6.01
2019-04-23T23:31:06.954Z,6.64
2019-04-23T23:36:12.426Z,5.89
2019-04-23T23:46:29.571Z,5.46
2019-04-23T23:51:34.431Z,10.71
2019-04-23T23:56:26.229Z,6.22
